Time;durP1;ratioP1;P1;durP2;ratioP2;P2;SDS_P1;SDS_P2;PMS_P1;PMS_P2;Temp;Humidity;BMP_temperature;BMP_pressure;BME280_temperature;BME280_humidity;BME280_pressure;Samples;Min_cycle;Max_cycle;Signal;HPM_P1;HPM_P2
2021/11/10 00:02:05;;;;;;;2.90;1.80;;;;;;;1.03;64.94;102239.31;5036354;28;20111;-66
2021/11/10 00:04:30;;;;;;;4.00;2.03;;;;;;;0.87;65.60;102200.63;5035828;28;20331;-64
2021/11/10 00:06:56;;;;;;;3.67;2.00;;;;;;;1.11;65.47;102235.44;5035837;28;20041;-66
2021/11/10 00:09:22;;;;;;;3.30;2.03;;;;;;;1.08;64.80;102218.97;5017553;28;20040;-68
2021/11/10 00:11:47;;;;;;;2.43;2.00;;;;;;;0.90;64.57;102179.50;5035949;28;20087;-65
2021/11/10 00:14:13;;;;;;;2.87;2.27;;;;;;;0.95;64.32;102192.44;5034869;28;20041;-66
2021/11/10 00:16:39;;;;;;;4.50;2.03;;;;;;;1.13;64.59;102227.50;5034886;28;20041;-69
2021/11/10 00:19:05;;;;;;;4.03;2.10;;;;;;;1.14;64.04;102223.94;5032965;28;20048;-69
2021/11/10 00:21:31;;;;;;;2.43;1.97;;;;;;;1.09;63.65;102211.03;5034335;28;20280;-68
2021/11/10 00:23:57;;;;;;;2.47;1.70;;;;;;;1.15;63.77;102220.41;5032125;28;20037;-64
2021/11/10 00:26:22;;;;;;;1.90;1.70;;;;;;;0.99;63.32;102190.53;5033253;28;20042;-67
2021/11/10 00:28:49;;;;;;;3.50;2.33;;;;;;;1.05;63.89;102190.25;5033396;28;20041;-68
2021/11/10 00:31:17;;;;;;;2.80;2.10;;;;;;;1.09;63.56;102205.78;5033616;28;20038;-67
2021/11/10 00:33:43;;;;;;;2.20;2.00;;;;;;;1.08;62.95;102195.34;5033193;28;20260;-71
2021/11/10 00:36:09;;;;;;;2.83;2.03;;;;;;;1.10;62.92;102190.91;5033109;28;20646;-70
2021/11/10 00:38:36;;;;;;;4.63;1.83;;;;;;;1.14;62.92;102192.47;5033265;28;20268;-67
2021/11/10 00:41:02;;;;;;;4.10;2.43;;;;;;;1.08;63.13;102177.00;5033964;28;20284;-68
2021/11/10 00:43:28;;;;;;;3.50;2.27;;;;;;;1.15;62.54;102183.66;5033110;28;20284;-67
2021/11/10 00:45:53;;;;;;;3.53;2.63;;;;;;;1.12;62.72;102173.31;5032932;28;20398;-66
2021/11/10 00:48:19;;;;;;;3.63;2.53;;;;;;;1.11;62.81;102163.72;5032888;28;20041;-64
2021/11/10 00:50:45;;;;;;;3.70;2.70;;;;;;;1.15;63.27;102157.44;5032880;28;20131;-65
2021/11/10 00:53:11;;;;;;;2.70;2.37;;;;;;;1.17;63.08;102156.47;5032569;28;20038;-64
2021/11/10 00:55:37;;;;;;;4.80;2.33;;;;;;;1.04;62.32;102141.31;5032592;28;20271;-68
2021/11/10 00:58:03;;;;;;;3.33;2.47;;;;;;;1.09;62.80;102152.47;5015598;28;20039;-63
2021/11/10 01:00:30;;;;;;;3.27;2.40;;;;;;;1.09;62.94;102142.81;5015593;28;20037;-65
2021/11/10 01:02:55;;;;;;;3.83;2.40;;;;;;;0.96;62.96;102120.69;5032527;28;20338;-68
2021/11/10 01:05:21;;;;;;;3.10;2.20;;;;;;;1.06;63.24;102148.19;5032638;28;20783;-63
2021/11/10 01:07:46;;;;;;;3.70;2.57;;;;;;;0.98;63.91;102138.97;5033000;28;20043;-66
2021/11/10 01:10:13;;;;;;;2.63;2.13;;;;;;;0.86;63.47;102125.47;5032398;28;20034;-65
2021/11/10 01:12:39;;;;;;;4.07;2.40;;;;;;;0.92;63.99;102140.94;5033770;28;20040;-69
2021/11/10 01:15:08;;;;;;;4.70;2.30;;;;;;;0.91;64.50;102131.38;5032546;28;20334;-64
2021/11/10 01:17:34;;;;;;;3.42;2.33;;;;;;;0.84;64.66;102121.19;5032547;28;20261;-63
2021/11/10 01:19:59;;;;;;;3.20;2.80;;;;;;;0.82;64.89;102123.88;5014627;28;20029;-63
2021/11/10 01:22:28;;;;;;;3.45;2.25;;;;;;;0.80;64.45;102115.25;5031959;28;20107;-65
2021/11/10 01:24:53;;;;;;;3.33;2.53;;;;;;;0.70;65.11;102092.97;4997689;28;20041;-65
2021/11/10 01:27:19;;;;;;;6.73;2.27;;;;;;;0.82;65.11;102113.41;5032492;28;20079;-65
2021/11/10 01:29:45;;;;;;;4.83;3.60;;;;;;;0.78;65.17;102095.25;5032108;28;20041;-64
2021/11/10 01:32:10;;;;;;;5.37;2.40;;;;;;;0.82;65.68;102102.91;5032195;28;20630;-66
2021/11/10 01:34:36;;;;;;;4.63;2.33;;;;;;;0.83;65.76;102085.41;5032011;28;20034;-67
2021/11/10 01:37:02;;;;;;;3.87;2.40;;;;;;;0.90;65.47;102085.09;5014091;28;20041;-64
2021/11/10 01:39:28;;;;;;;5.30;2.10;;;;;;;0.94;65.40;102077.94;5032144;28;20041;-65
2021/11/10 01:42:01;;;;;;;4.00;2.23;;;;;;;0.91;65.32;102065.81;5031860;28;20287;-65
2021/11/10 01:44:28;;;;;;;2.93;2.57;;;;;;;1.02;66.06;102072.34;5032030;28;20134;-65
2021/11/10 01:46:56;;;;;;;6.53;2.70;;;;;;;1.02;65.42;102070.56;5031811;28;20272;-65
2021/11/10 01:49:22;;;;;;;3.90;2.00;;;;;;;1.10;65.45;102068.44;5031815;28;20275;-65
2021/11/10 01:51:51;;;;;;;2.67;2.10;;;;;;;1.14;65.64;102053.41;5031545;28;20264;-66
2021/11/10 01:54:19;;;;;;;8.47;2.53;;;;;;;1.22;65.73;102060.00;5031899;28;20029;-67
2021/11/10 01:56:45;;;;;;;2.08;1.88;;;;;;;1.21;66.18;102046.97;5032269;28;20268;-62
2021/11/10 01:59:34;;;;;;;10.23;1.93;;;;;;;1.26;65.86;102038.88;5031664;28;20037;-64
2021/11/10 02:02:01;;;;;;;2.03;1.67;;;;;;;1.27;65.59;102020.44;5031593;28;20317;-64
2021/11/10 02:04:32;;;;;;;8.73;1.90;;;;;;;1.03;65.80;101985.69;5031732;28;20531;-64
2021/11/10 02:06:58;;;;;;;2.40;1.80;;;;;;;1.40;65.85;102029.41;5031820;28;20360;-64
2021/11/10 02:09:24;;;;;;;3.13;1.80;;;;;;;1.36;65.83;101998.97;5031802;28;20252;-63
2021/11/10 02:11:52;;;;;;;2.10;1.80;;;;;;;1.42;66.00;102009.19;5031489;28;20272;-64
2021/11/10 02:14:20;;;;;;;2.87;1.73;;;;;;;1.41;66.23;102002.25;5013832;28;20515;-62
2021/11/10 02:16:47;;;;;;;3.60;2.10;;;;;;;1.23;66.37;101969.00;5032551;28;20666;-64
2021/11/10 02:19:14;;;;;;;3.53;2.37;;;;;;;1.43;66.52;101989.03;5035695;28;20099;-64
2021/11/10 02:21:53;;;;;;;5.07;1.90;;;;;;;1.47;66.73;101991.47;5036079;28;20601;-63
2021/11/10 02:24:22;;;;;;;5.90;2.10;;;;;;;1.48;66.66;101987.91;5035901;28;20338;-65
2021/11/10 02:26:48;;;;;;;2.80;2.07;;;;;;;1.49;66.72;101980.88;5035996;28;20263;-65
2021/11/10 02:29:33;;;;;;;2.33;1.60;;;;;;;1.42;67.22;101971.59;5035377;28;20264;-63
2021/11/10 02:31:59;;;;;;;2.17;1.90;;;;;;;1.47;67.32;101993.25;5035572;28;20673;-64
2021/11/10 02:34:24;;;;;;;3.50;1.73;;;;;;;1.47;67.31;101986.22;5035395;28;20272;-64
2021/11/10 02:36:50;;;;;;;3.20;2.17;;;;;;;1.37;67.31;101958.69;5017856;28;20407;-64
2021/11/10 02:39:18;;;;;;;9.57;2.13;;;;;;;1.38;67.31;101965.63;5035365;28;20060;-64
2021/11/10 02:41:47;;;;;;;3.35;1.75;;;;;;;1.51;67.22;101997.41;5035617;28;20057;-65
2021/11/10 02:44:16;;;;;;;4.20;1.77;;;;;;;1.46;67.79;101984.50;5035605;28;20048;-66
2021/11/10 02:46:42;;;;;;;2.50;2.30;;;;;;;1.44;67.49;101969.75;5035666;28;20041;-63
2021/11/10 02:49:08;;;;;;;2.30;1.80;;;;;;;1.50;67.65;101975.56;5036010;28;20049;-70
2021/11/10 02:51:34;;;;;;;4.27;1.70;;;;;;;1.51;67.73;101966.75;5018207;28;20256;-66
2021/11/10 02:53:59;;;;;;;3.90;1.97;;;;;;;1.50;68.25;101959.81;5035658;28;20068;-66
2021/11/10 02:56:25;;;;;;;2.43;1.90;;;;;;;1.52;68.34;101957.97;5035155;28;20045;-64
2021/11/10 02:58:50;;;;;;;4.63;2.10;;;;;;;1.57;68.03;101962.13;5017918;28;20507;-67
2021/11/10 03:01:16;;;;;;;3.97;1.70;;;;;;;1.49;68.41;101944.97;5034956;28;20048;-68
2021/11/10 03:03:41;;;;;;;2.27;1.97;;;;;;;1.42;68.66;101935.69;5017205;28;20033;-65
2021/11/10 03:06:07;;;;;;;5.63;2.20;;;;;;;1.48;68.94;101935.41;5034716;28;20041;-66
2021/11/10 03:08:32;;;;;;;3.20;1.93;;;;;;;1.56;68.43;101945.53;5034873;28;20183;-67
2021/11/10 03:10:58;;;;;;;2.93;1.90;;;;;;;1.54;68.92;101937.72;5017208;28;20033;-69
2021/11/10 03:13:24;;;;;;;4.07;2.07;;;;;;;1.58;68.55;101934.94;5034855;28;20041;-67
2021/11/10 03:15:49;;;;;;;5.87;2.53;;;;;;;1.43;69.05;101915.53;5034724;28;20045;-66
2021/11/10 03:18:16;;;;;;;2.80;1.77;;;;;;;1.52;69.15;101925.59;5034850;28;20140;-66
2021/11/10 03:20:42;;;;;;;2.73;2.00;;;;;;;1.49;69.09;101923.97;5034384;28;20523;-69
2021/11/10 03:23:08;;;;;;;2.40;2.20;;;;;;;1.52;70.05;101929.06;5018562;28;20268;-69
2021/11/10 03:25:35;;;;;;;4.67;2.23;;;;;;;1.57;70.64;101922.75;5036207;28;20308;-68
2021/11/10 03:28:01;;;;;;;7.73;3.60;;;;;;;1.50;70.70;101917.81;5038101;28;20257;-69
2021/11/10 03:30:28;;;;;;;2.17;1.97;;;;;;;1.49;71.73;101910.84;5001001;28;20443;-65
2021/11/10 03:32:55;;;;;;;3.23;2.70;;;;;;;1.43;72.06;101911.13;5034313;28;20777;-68
2021/11/10 03:35:22;;;;;;;4.00;2.43;;;;;;;1.40;72.71;101908.66;5033931;28;20307;-64
2021/11/10 03:37:49;;;;;;;7.43;3.53;;;;;;;1.33;72.81;101902.03;5034028;28;20268;-68
2021/11/10 03:40:15;;;;;;;3.10;2.33;;;;;;;1.30;73.11;101891.69;5034145;28;20367;-68
2021/11/10 03:42:41;;;;;;;5.03;2.50;;;;;;;1.25;72.64;101888.44;5035585;28;20306;-64
2021/11/10 03:45:08;;;;;;;4.17;3.20;;;;;;;1.13;73.55;101865.41;5034524;28;20706;-68
2021/11/10 03:47:34;;;;;;;3.27;2.97;;;;;;;1.21;74.37;101887.75;5022582;28;20095;-67
2021/11/10 03:50:00;;;;;;;3.33;2.53;;;;;;;1.27;74.07;101894.47;5025649;28;20759;-68
2021/11/10 03:52:26;;;;;;;3.13;2.50;;;;;;;1.21;73.70;101879.88;5025039;28;20057;-66
2021/11/10 03:54:52;;;;;;;2.87;2.43;;;;;;;1.20;73.87;101877.31;5025519;28;20268;-66
2021/11/10 03:57:17;;;;;;;2.70;2.10;;;;;;;1.32;73.33;101891.59;5029037;28;20080;-64
2021/11/10 03:59:43;;;;;;;4.37;2.50;;;;;;;1.35;73.90;101905.41;5020874;28;20068;-71
2021/11/10 04:02:10;;;;;;;3.43;2.73;;;;;;;1.33;74.08;101888.91;5014531;28;20033;-65
2021/11/10 04:04:36;;;;;;;4.47;2.50;;;;;;;1.33;73.79;101878.41;5014528;28;20049;-67
2021/11/10 04:07:01;;;;;;;3.17;2.70;;;;;;;1.41;73.47;101892.00;5013886;28;20636;-66
2021/11/10 04:09:27;;;;;;;5.47;2.30;;;;;;;1.41;74.10;101876.25;5014056;28;20041;-65
2021/11/10 04:11:53;;;;;;;2.53;2.10;;;;;;;1.41;73.81;101881.50;5013845;28;20029;-64
2021/11/10 04:14:19;;;;;;;4.80;2.83;;;;;;;1.36;74.22;101875.63;5022197;28;20526;-65
2021/11/10 04:16:47;;;;;;;5.60;3.17;;;;;;;1.33;74.24;101867.06;5020880;28;20038;-64
2021/11/10 04:19:13;;;;;;;3.35;2.15;;;;;;;1.36;73.93;101874.78;5024284;28;20484;-64
2021/11/10 04:21:38;;;;;;;3.33;2.77;;;;;;;1.47;73.86;101875.97;5024028;28;20037;-64
2021/11/10 04:24:05;;;;;;;3.70;2.90;;;;;;;1.52;73.82;101884.44;5006383;28;20044;-70
2021/11/10 04:26:38;;;;;;;5.23;2.30;;;;;;;1.49;72.94;101854.88;5009421;28;20046;-63
2021/11/10 04:29:05;;;;;;;4.03;2.97;;;;;;;1.57;73.26;101854.47;5002041;28;20364;-66
2021/11/10 04:31:31;;;;;;;4.13;2.60;;;;;;;1.54;73.20;101837.97;5023606;28;20265;-61
2021/11/10 04:33:57;;;;;;;4.50;1.90;;;;;;;1.53;73.72;101843.28;5004101;28;20264;-62
2021/11/10 04:36:25;;;;;;;2.70;2.50;;;;;;;1.41;73.53;101812.38;5021167;28;20639;-64
2021/11/10 04:38:52;;;;;;;3.03;2.33;;;;;;;1.62;73.80;101831.47;5023633;28;20354;-60
2021/11/10 04:41:18;;;;;;;4.03;2.30;;;;;;;1.70;73.57;101845.03;5021328;28;20067;-61
2021/11/10 04:43:44;;;;;;;3.23;2.47;;;;;;;1.59;72.50;101827.22;5024924;28;20281;-62
2021/11/10 04:46:44;;;;;;;3.53;2.20;;;;;;;1.70;72.31;101834.53;5029896;28;20349;-63
2021/11/10 04:49:04;;;;;;;3.30;2.60;;;;;;;1.75;72.02;101830.75;5018093;28;20279;-62
2021/11/10 04:51:31;;;;;;;3.43;2.57;;;;;;;1.68;72.11;101810.97;5022304;28;20311;-62
2021/11/10 04:53:58;;;;;;;2.93;2.50;;;;;;;1.77;71.65;101820.16;5029415;28;20295;-60
2021/11/10 04:56:24;;;;;;;3.30;2.30;;;;;;;1.79;71.46;101829.66;5032661;28;20774;-61
2021/11/10 04:58:50;;;;;;;10.10;7.37;;;;;;;1.75;71.66;101811.53;5032477;28;20767;-61
2021/11/10 05:01:22;;;;;;;3.50;2.63;;;;;;;1.67;71.09;101793.53;5032202;28;20267;-62
2021/11/10 05:03:49;;;;;;;3.90;2.60;;;;;;;1.81;71.64;101811.19;5019967;28;20034;-61
2021/11/10 05:06:15;;;;;;;3.40;2.60;;;;;;;1.86;71.02;101803.91;4995168;28;20668;-71
2021/11/10 05:08:41;;;;;;;4.47;3.10;;;;;;;1.80;71.03;101797.22;4994538;28;20041;-67
2021/11/10 05:11:06;;;;;;;3.30;3.00;;;;;;;1.84;70.81;101798.75;5011644;28;20056;-67
2021/11/10 05:13:31;;;;;;;4.27;3.00;;;;;;;1.87;70.93;101795.09;4994021;28;20041;-70
2021/11/10 05:15:57;;;;;;;2.50;2.30;;;;;;;1.47;70.29;101722.84;5011635;28;20052;-70
2021/11/10 05:18:22;;;;;;;6.03;2.90;;;;;;;1.77;70.32;101768.50;4993665;28;20191;-66
2021/11/10 05:20:49;;;;;;;2.80;2.20;;;;;;;1.82;70.69;101765.63;4994029;28;20038;-64
2021/11/10 05:23:15;;;;;;;2.70;2.37;;;;;;;1.74;70.67;101755.53;4995170;28;20036;-64
2021/11/10 05:25:42;;;;;;;3.13;2.47;;;;;;;1.82;70.75;101761.22;5012272;28;20347;-65
2021/11/10 05:28:08;;;;;;;4.43;2.53;;;;;;;1.82;70.54;101765.63;5019591;28;20276;-61
2021/11/10 05:30:36;;;;;;;3.83;2.30;;;;;;;1.85;70.44;101770.69;5023405;28;20679;-62
2021/11/10 05:33:03;;;;;;;4.30;2.33;;;;;;;1.88;70.41;101780.19;5024817;28;20161;-62
2021/11/10 05:35:28;;;;;;;4.17;3.43;;;;;;;1.79;70.33;101752.66;5021335;28;20276;-64
2021/11/10 05:37:54;;;;;;;7.30;3.00;;;;;;;1.83;70.05;101756.81;5022310;28;20354;-60
2021/11/10 05:40:20;;;;;;;4.07;2.97;;;;;;;1.88;70.33;101760.03;5025490;28;20392;-61
2021/11/10 05:42:48;;;;;;;5.43;2.87;;;;;;;1.84;69.43;101751.47;5024071;28;20493;-70
2021/11/10 05:45:13;;;;;;;4.55;3.00;;;;;;;1.85;70.12;101747.91;5026122;28;20114;-71
2021/11/10 05:47:39;;;;;;;5.43;2.90;;;;;;;1.93;70.03;101755.38;5020277;28;20049;-68
2021/11/10 05:50:07;;;;;;;5.20;3.43;;;;;;;1.99;69.92;101751.56;5024045;28;20036;-67
2021/11/10 05:52:33;;;;;;;3.50;2.77;;;;;;;1.89;70.02;101745.13;5022499;28;20562;-72
2021/11/10 05:54:59;;;;;;;3.40;3.10;;;;;;;1.99;70.16;101752.41;5019975;28;20767;-70
2021/11/10 05:57:25;;;;;;;4.80;3.10;;;;;;;1.98;70.25;101739.34;5003420;28;20275;-69
2021/11/10 05:59:50;;;;;;;6.53;3.47;;;;;;;1.95;69.91;101734.25;5025585;28;20076;-69
2021/11/10 06:02:19;;;;;;;5.60;3.87;;;;;;;2.01;70.33;101739.19;5025897;28;20456;-69
2021/11/10 06:04:45;;;;;;;4.60;3.13;;;;;;;2.02;70.43;101733.84;4999339;28;20121;-70
2021/11/10 06:07:11;;;;;;;4.63;3.20;;;;;;;2.01;70.76;101724.25;5023046;28;20416;-69
2021/11/10 06:09:36;;;;;;;6.70;3.27;;;;;;;2.10;70.59;101739.53;5019832;28;20136;-61
2021/11/10 06:12:03;;;;;;;3.27;2.97;;;;;;;2.10;70.45;101739.53;5005112;28;20092;-63
2021/11/10 06:14:28;;;;;;;9.27;3.30;;;;;;;2.08;70.20;101737.94;5020055;28;20049;-62
2021/11/10 06:16:54;;;;;;;4.00;3.17;;;;;;;2.15;69.99;101742.75;5005141;28;20796;-64
2021/11/10 06:19:20;;;;;;;3.53;3.07;;;;;;;2.08;71.21;101724.81;5002832;28;20029;-65
2021/11/10 06:21:45;;;;;;;6.33;3.07;;;;;;;2.10;71.31;101731.66;5020366;28;20029;-65
2021/11/10 06:24:14;;;;;;;5.07;3.20;;;;;;;2.15;70.71;101729.63;5020154;28;20687;-68
2021/11/10 06:26:40;;;;;;;5.05;2.88;;;;;;;2.07;70.99;101710.81;5020550;28;20112;-69
2021/11/10 06:29:06;;;;;;;5.23;3.00;;;;;;;2.15;70.95;101726.16;5024039;28;20049;-63
2021/11/10 06:31:32;;;;;;;4.70;3.00;;;;;;;2.15;70.91;101720.88;5026917;28;20341;-63
2021/11/10 06:34:00;;;;;;;3.70;3.17;;;;;;;2.20;70.86;101723.25;5003600;28;20030;-62
2021/11/10 06:36:26;;;;;;;5.03;3.97;;;;;;;2.17;70.82;101719.03;5002157;28;20033;-63
2021/11/10 06:38:52;;;;;;;5.70;3.73;;;;;;;2.21;71.59;101711.81;5005607;28;20195;-63
2021/11/10 06:41:20;;;;;;;4.30;3.47;;;;;;;2.18;71.19;101695.28;5025609;28;20299;-64
2021/11/10 06:43:47;;;;;;;4.80;3.17;;;;;;;2.29;71.74;101717.47;5032285;28;20037;-66
2021/11/10 06:46:13;;;;;;;10.33;3.43;;;;;;;2.28;71.84;101710.53;5031182;28;20044;-65
2021/11/10 06:48:39;;;;;;;3.47;3.17;;;;;;;2.23;71.71;101712.56;5031044;28;20280;-65
2021/11/10 06:51:04;;;;;;;4.13;3.37;;;;;;;2.18;71.81;101697.06;5030519;28;20577;-66
2021/11/10 06:53:30;;;;;;;4.53;3.50;;;;;;;2.23;71.56;101716.03;5030804;28;20037;-65
2021/11/10 06:55:56;;;;;;;4.33;3.60;;;;;;;2.24;72.34;101703.75;5030917;28;20037;-64
2021/11/10 06:58:22;;;;;;;8.50;3.53;;;;;;;2.13;72.36;101689.44;5030754;28;20455;-67
2021/11/10 07:00:48;;;;;;;5.90;2.80;;;;;;;2.08;72.51;101688.00;5031093;28;20029;-65
2021/11/10 07:03:13;;;;;;;6.77;3.37;;;;;;;2.04;72.76;101675.97;5032008;28;20435;-65
2021/11/10 07:05:40;;;;;;;3.87;2.97;;;;;;;2.14;72.96;101692.91;5035069;28;20322;-65
2021/11/10 07:08:06;;;;;;;3.60;2.80;;;;;;;2.13;72.81;101691.22;5034530;28;20029;-65
2021/11/10 07:10:32;;;;;;;5.37;2.83;;;;;;;2.03;72.80;101676.91;5034029;28;20458;-64
2021/11/10 07:12:57;;;;;;;5.13;3.63;;;;;;;2.16;72.80;101699.78;5032952;28;20057;-65
2021/11/10 07:15:24;;;;;;;4.77;2.90;;;;;;;2.24;73.08;101694.09;5034410;28;20044;-63
2021/11/10 07:17:51;;;;;;;3.90;3.43;;;;;;;2.01;72.90;101658.59;5032669;28;20404;-65
2021/11/10 07:20:18;;;;;;;6.37;3.20;;;;;;;2.28;73.58;101697.38;5033011;28;20747;-66
2021/11/10 07:22:43;;;;;;;7.23;3.70;;;;;;;2.25;73.68;101700.19;5032674;28;20304;-65
2021/11/10 07:25:09;;;;;;;5.03;3.97;;;;;;;2.17;74.60;101680.44;5033726;28;20331;-64
2021/11/10 07:27:35;;;;;;;4.83;3.40;;;;;;;2.23;74.36;101686.28;5031302;28;20033;-66
2021/11/10 07:30:03;;;;;;;4.27;3.33;;;;;;;2.23;75.49;101675.78;5033858;28;20052;-61
2021/11/10 07:32:29;;;;;;;4.83;2.90;;;;;;;2.22;74.92;101680.19;5033301;28;20298;-64
2021/11/10 07:34:54;;;;;;;4.97;3.13;;;;;;;2.18;76.18;101679.50;5032875;28;20261;-65
2021/11/10 07:37:20;;;;;;;4.23;2.87;;;;;;;2.12;75.97;101666.72;5033528;28;20473;-67
2021/11/10 07:39:46;;;;;;;5.70;3.30;;;;;;;2.14;76.10;101678.00;5033555;28;20049;-68
2021/11/10 07:42:12;;;;;;;5.43;3.33;;;;;;;2.08;77.32;101662.59;5031662;28;20053;-66
2021/11/10 07:44:51;;;;;;;3.70;2.73;;;;;;;2.13;76.55;101685.97;5032239;28;20311;-66
2021/11/10 07:47:29;;;;;;;2.60;2.37;;;;;;;2.04;77.23;101666.31;5031617;28;20280;-67
2021/11/10 07:49:55;;;;;;;4.63;2.80;;;;;;;2.11;77.94;101688.69;5034506;28;20269;-68
2021/11/10 07:52:21;;;;;;;3.83;3.10;;;;;;;1.99;78.71;101673.59;5034269;28;20767;-70
2021/11/10 07:54:46;;;;;;;4.07;3.00;;;;;;;1.94;78.82;101680.03;5032914;28;20287;-65
2021/11/10 07:57:15;;;;;;;4.17;3.03;;;;;;;1.93;78.70;101675.72;5036607;28;20069;-69
2021/11/10 07:59:40;;;;;;;6.40;3.65;;;;;;;1.79;79.33;101647.59;5035323;28;20124;-66
2021/11/10 08:02:12;;;;;;;4.60;3.43;;;;;;;2.02;79.69;101673.41;5034699;28;20113;-66
2021/11/10 08:04:37;;;;;;;7.87;5.23;;;;;;;2.05;79.55;101678.53;5030665;28;20342;-66
2021/11/10 08:07:03;;;;;;;5.93;4.07;;;;;;;1.89;79.85;101638.25;5033083;28;20268;-65
2021/11/10 08:09:28;;;;;;;6.10;3.83;;;;;;;2.01;80.55;101666.47;5032390;28;20072;-65
2021/11/10 08:11:54;;;;;;;3.80;3.20;;;;;;;1.97;81.57;101670.19;5033738;28;20034;-68
2021/11/10 08:14:22;;;;;;;5.83;3.23;;;;;;;1.86;82.00;101656.81;5033493;28;20033;-65
2021/11/10 08:16:48;;;;;;;5.85;3.65;;;;;;;1.90;82.02;101668.00;5015666;28;20090;-64
2021/11/10 08:19:14;;;;;;;3.90;3.20;;;;;;;1.87;83.10;101669.03;5032931;28;20052;-66
2021/11/10 08:21:40;;;;;;;4.73;3.70;;;;;;;1.82;83.28;101665.81;5033137;28;20164;-64
2021/11/10 08:24:06;;;;;;;4.23;3.83;;;;;;;1.80;84.01;101652.75;5033494;28;20040;-61
2021/11/10 08:26:31;;;;;;;6.00;4.37;;;;;;;1.76;84.40;101658.28;5033176;28;20292;-65
2021/11/10 08:28:57;;;;;;;7.43;4.27;;;;;;;1.81;84.92;101648.34;5033277;28;20105;-66
2021/11/10 08:31:23;;;;;;;7.53;4.87;;;;;;;1.84;85.04;101664.78;5031813;28;20076;-65
2021/11/10 08:33:48;;;;;;;7.20;4.60;;;;;;;1.77;84.89;101658.19;5032582;28;20033;-64
2021/11/10 08:36:14;;;;;;;7.83;4.83;;;;;;;1.73;85.47;101650.53;5032837;28;20582;-67
2021/11/10 08:38:39;;;;;;;6.03;4.27;;;;;;;1.65;86.32;101634.34;5033121;28;20045;-62
2021/11/10 08:41:06;;;;;;;6.63;5.03;;;;;;;1.86;85.87;101662.06;5033020;28;20053;-60
2021/11/10 08:43:33;;;;;;;7.53;5.03;;;;;;;1.87;86.63;101655.88;5032628;28;20073;-63
2021/11/10 08:45:59;;;;;;;8.00;4.17;;;;;;;1.76;86.43;101639.88;5033421;28;20291;-63
2021/11/10 08:48:25;;;;;;;4.90;3.70;;;;;;;1.80;86.58;101646.66;5032858;28;20275;-69
2021/11/10 08:50:51;;;;;;;4.57;3.77;;;;;;;1.82;86.69;101647.41;5033168;28;20041;-70
2021/11/10 08:53:18;;;;;;;7.20;4.13;;;;;;;1.80;86.93;101641.41;5032316;28;20628;-68
2021/11/10 08:55:46;;;;;;;5.70;3.90;;;;;;;1.75;86.77;101638.19;5033303;28;20033;-66
2021/11/10 08:58:12;;;;;;;5.37;3.70;;;;;;;1.64;87.38;101615.13;5015959;28;20393;-68
2021/11/10 09:00:39;;;;;;;4.80;3.63;;;;;;;1.75;87.35;101640.81;5033586;28;20372;-71
2021/11/10 09:03:04;;;;;;;4.10;3.43;;;;;;;1.76;86.97;101634.63;5033083;28;20260;-71
2021/11/10 09:05:30;;;;;;;8.63;4.20;;;;;;;1.71;87.32;101620.88;5032134;28;20353;-72
2021/11/10 09:07:56;;;;;;;7.13;4.40;;;;;;;1.64;87.61;101594.13;5031974;28;20030;-69
2021/11/10 09:10:22;;;;;;;5.23;3.83;;;;;;;1.81;87.49;101616.84;5033060;28;20040;-71
2021/11/10 09:12:51;;;;;;;4.50;3.73;;;;;;;1.90;87.80;101631.22;5033096;28;20079;-71
2021/11/10 09:15:18;;;;;;;5.53;4.67;;;;;;;1.80;87.37;101617.78;5031899;28;20295;-66
2021/11/10 09:17:44;;;;;;;7.00;3.97;;;;;;;1.86;87.12;101618.28;5032155;28;20295;-71
2021/11/10 09:20:20;;;;;;;6.60;4.07;;;;;;;1.90;86.58;101620.72;5032473;28;20276;-65
2021/11/10 09:22:46;;;;;;;4.83;3.40;;;;;;;1.82;87.61;101606.25;5032726;28;20110;-64
2021/11/10 09:25:15;;;;;;;5.60;3.50;;;;;;;1.89;87.09;101603.28;5031104;28;20334;-66
2021/11/10 09:27:40;;;;;;;3.67;3.00;;;;;;;1.98;86.89;101619.34;5033673;28;20341;-67
2021/11/10 09:30:12;;;;;;;5.40;3.00;;;;;;;2.01;85.74;101613.06;5032679;28;20539;-65
2021/11/10 09:32:39;;;;;;;5.03;3.50;;;;;;;1.92;85.69;101603.09;5032714;28;20172;-66
2021/11/10 09:35:10;;;;;;;7.47;3.10;;;;;;;1.88;85.92;101612.94;5032728;28;20291;-69
2021/11/10 09:37:37;;;;;;;3.63;2.70;;;;;;;1.99;85.87;101621.03;5032934;28;20367;-68
2021/11/10 09:40:07;;;;;;;4.83;2.83;;;;;;;1.59;85.77;101537.56;5032378;28;20627;-65
2021/11/10 09:42:37;;;;;;;4.83;3.53;;;;;;;1.77;85.12;101562.78;5032224;28;20330;-68
2021/11/10 09:45:06;;;;;;;3.72;2.80;;;;;;;2.02;85.19;101599.00;5031786;28;20296;-69
2021/11/10 09:47:37;;;;;;;3.93;2.57;;;;;;;1.96;85.42;101587.06;5031759;28;20523;-68
2021/11/10 09:50:03;;;;;;;3.60;3.30;;;;;;;2.08;85.69;101598.66;5032066;28;20284;-67
2021/11/10 09:52:30;;;;;;;7.87;3.10;;;;;;;2.10;86.04;101583.66;5032098;28;20076;-70
2021/11/10 09:54:56;;;;;;;4.40;2.40;;;;;;;1.98;84.95;101561.56;5032158;28;20268;-73
2021/11/10 09:57:21;;;;;;;5.20;2.77;;;;;;;2.12;85.72;101585.28;5032398;28;20291;-74
2021/11/10 09:59:48;;;;;;;3.60;2.97;;;;;;;2.20;85.87;101566.41;5036506;28;20040;-68
2021/11/10 10:02:14;;;;;;;4.03;3.03;;;;;;;2.20;85.85;101566.41;5040663;28;20037;-64
2021/11/10 10:04:44;;;;;;;3.10;2.77;;;;;;;1.78;86.21;101506.72;5032636;28;20300;-68
2021/11/10 10:07:13;;;;;;;4.20;2.70;;;;;;;2.13;86.42;101573.81;5032517;28;20334;-70
2021/11/10 10:09:39;;;;;;;4.47;2.83;;;;;;;2.06;86.95;101554.09;5030739;28;20264;-67
2021/11/10 10:12:07;;;;;;;3.20;2.80;;;;;;;2.14;87.19;101562.38;5031566;28;20307;-66
2021/11/10 10:14:34;;;;;;;5.10;2.90;;;;;;;2.17;86.04;101570.06;5032230;28;20285;-69
2021/11/10 10:17:07;;;;;;;4.57;2.97;;;;;;;2.13;86.33;101555.44;5031717;28;20422;-67
2021/11/10 10:19:42;;;;;;;5.23;3.40;;;;;;;2.16;86.23;101555.25;5031588;28;20275;-66
2021/11/10 10:22:17;;;;;;;2.57;2.33;;;;;;;2.11;86.87;101544.16;5031811;28;20276;-68
2021/11/10 10:24:51;;;;;;;4.97;2.80;;;;;;;2.13;86.90;101552.81;5031986;28;20296;-67
2021/11/10 10:27:24;;;;;;;3.80;2.30;;;;;;;2.16;87.31;101552.63;5031937;28;20358;-67
2021/11/10 10:30:27;;;;;;;3.40;2.33;;;;;;;2.17;87.82;101550.84;5031575;28;20350;-73
2021/11/10 10:32:55;;;;;;;4.30;2.73;;;;;;;2.13;87.86;101539.66;5167786;22;21552;-61
2021/11/10 10:35:30;;;;;;;4.07;2.75;;;;;;;2.16;88.39;101543.88;5006506;28;20269;-61
2021/11/10 10:37:56;;;;;;;2.73;2.50;;;;;;;2.19;87.47;101535.81;4991033;28;20104;-59
2021/11/10 10:40:21;;;;;;;6.23;3.93;;;;;;;2.16;87.96;101536.84;5012804;28;20654;-62
2021/11/10 10:42:47;;;;;;;4.73;2.80;;;;;;;2.14;87.55;101532.63;5015504;28;20042;-63
2021/11/10 10:45:29;;;;;;;3.10;2.80;;;;;;;2.11;87.95;101525.78;5015188;28;20045;-60
2021/11/10 10:48:08;;;;;;;4.03;3.10;;;;;;;2.11;87.91;101530.19;5015373;28;20451;-60
2021/11/10 10:50:49;;;;;;;3.25;2.63;;;;;;;2.10;88.54;101531.97;4980672;28;20335;-62
2021/11/10 10:53:18;;;;;;;4.13;2.77;;;;;;;2.11;88.86;101535.44;5014486;28;20121;-63
2021/11/10 10:55:47;;;;;;;3.73;2.77;;;;;;;2.13;88.89;101528.31;5014453;28;20277;-62
2021/11/10 10:58:30;;;;;;;;;;;;;;;2.15;88.86;101522.03;5014787;28;20268;-62
2021/11/10 11:00:56;;;;;;;3.37;3.00;;;;;;;2.07;89.37;101508.50;5014150;28;20450;-65
2021/11/10 11:03:23;;;;;;;4.57;3.30;;;;;;;2.11;89.85;101522.28;5014527;28;20279;-60
2021/11/10 11:05:49;;;;;;;3.60;2.90;;;;;;;2.17;89.83;101520.16;5014855;28;20841;-60
2021/11/10 11:08:33;;;;;;;6.93;3.57;;;;;;;2.29;89.47;101518.56;5014845;28;20269;-61
2021/11/10 11:11:01;;;;;;;3.83;2.50;;;;;;;2.24;89.32;101507.47;5014893;28;20041;-61
2021/11/10 11:13:51;;;;;;;3.65;2.90;;;;;;;2.24;88.94;101510.09;5014756;28;20316;-63
2021/11/10 11:16:21;;;;;;;3.93;2.67;;;;;;;2.18;88.90;101499.97;5014866;28;20451;-61
2021/11/10 11:18:48;;;;;;;3.97;2.80;;;;;;;2.14;89.17;101488.78;5014828;28;20269;-63
2021/11/10 11:21:26;;;;;;;6.83;3.50;;;;;;;2.26;89.61;101491.63;5014701;28;20272;-61
2021/11/10 11:23:55;;;;;;;3.40;2.97;;;;;;;2.26;89.66;101478.47;5014770;28;20300;-61
2021/11/10 11:26:32;;;;;;;4.83;3.67;;;;;;;2.30;89.61;101469.47;5014841;28;20363;-63
2021/11/10 11:29:16;;;;;;;4.13;3.47;;;;;;;2.33;89.31;101469.31;5014742;28;20277;-60
2021/11/10 11:31:42;;;;;;;4.03;3.00;;;;;;;2.24;89.47;101452.28;5014580;28;20269;-60
2021/11/10 11:34:11;;;;;;;6.93;2.80;;;;;;;2.35;89.37;101470.06;5014114;28;20355;-61
2021/11/10 11:36:53;;;;;;;6.05;3.15;;;;;;;2.35;89.46;101459.56;5014514;28;20292;-62